Time;durP1;ratioP1;P1;durP2;ratioP2;P2;SDS_P1;SDS_P2;PMS_P1;PMS_P2;Temp;Humidity;BMP_temperature;BMP_pressure;BME280_temperature;BME280_humidity;BME280_pressure;Samples;Min_cycle;Max_cycle;Signal;HPM_P1;HPM_P2
2022/05/29 00:01:28;;;;;;;;;0.00;0.00;;;;;;;;5083648;27;45618;-70
2022/05/29 00:03:54;;;;;;;;;2.00;1.00;;;;;;;;5074346;28;45471;-70
2022/05/29 00:06:19;;;;;;;;;1.00;1.00;;;;;;;;5080413;27;45318;-70
2022/05/29 00:08:45;;;;;;;;;1.00;1.00;;;;;;;;5075223;28;45422;-70
2022/05/29 00:11:13;;;;;;;;;1.00;1.00;;;;;;;;5077893;27;45394;-70
2022/05/29 00:13:38;;;;;;;;;4.50;1.00;;;;;;;;5078143;27;45305;-70
2022/05/29 00:16:03;;;;;;;;;2.50;1.25;;;;;;;;5079110;27;45480;-70
2022/05/29 00:18:28;;;;;;;;;2.75;1.00;;;;;;;;5077285;27;45316;-70
2022/05/29 00:20:56;;;;;;;;;1.00;1.00;;;;;;;;5061387;28;45379;-70
2022/05/29 00:23:22;;;;;;;;;1.25;1.00;;;;;;;;5076938;27;45437;-70
2022/05/29 00:25:48;;;;;;;;;1.75;1.00;;;;;;;;5061464;28;47074;-70
2022/05/29 00:28:14;;;;;;;;;1.00;1.00;;;;;;;;5074238;27;45221;-70
2022/05/29 00:30:40;;;;;;;;;1.00;1.00;;;;;;;;5060768;28;45611;-70
2022/05/29 00:33:05;;;;;;;;;1.00;1.00;;;;;;;;5054893;28;46217;-70
2022/05/29 00:35:31;;;;;;;;;0.50;0.50;;;;;;;;5059432;27;47496;-70
2022/05/29 00:37:56;;;;;;;;;1.25;1.25;;;;;;;;5074307;28;45363;-70
2022/05/29 00:40:30;;;;;;;;;1.50;1.50;;;;;;;;5077066;28;44918;-70
2022/05/29 00:42:56;;;;;;;;;2.00;2.00;;;;;;;;5074111;28;45573;-70
2022/05/29 00:45:22;;;;;;;;;1.00;1.00;;;;;;;;5076642;28;45394;-70
2022/05/29 00:47:47;;;;;;;;;0.75;0.75;;;;;;;;5063739;28;45450;-70
2022/05/29 00:50:13;;;;;;;;;0.25;0.25;;;;;;;;5054407;28;45372;-70
2022/05/29 00:52:38;;;;;;;;;2.00;2.00;;;;;;;;5076608;28;45499;-70
2022/05/29 00:55:06;;;;;;;;;2.00;1.00;;;;;;;;5055823;28;47343;-70
2022/05/29 00:57:33;;;;;;;;;1.00;0.00;;;;;;;;5059020;28;45299;-70
2022/05/29 01:00:04;;;;;;;;;2.25;1.00;;;;;;;;5074309;28;45343;-70
2022/05/29 01:02:29;;;;;;;;;1.00;1.00;;;;;;;;5059006;28;47314;-70
2022/05/29 01:04:55;;;;;;;;;2.50;2.00;;;;;;;;5076250;27;45211;-70
2022/05/29 01:07:22;;;;;;;;;3.00;1.00;;;;;;;;5076730;28;45226;-70
2022/05/29 01:09:48;;;;;;;;;1.00;1.00;;;;;;;;5077841;28;45438;-70
2022/05/29 01:12:31;;;;;;;;;2.00;2.00;;;;;;;;5058981;28;46263;-70
2022/05/29 01:14:56;;;;;;;;;0.75;0.75;;;;;;;;5076864;27;45333;-70
2022/05/29 01:17:21;;;;;;;;;1.00;1.00;;;;;;;;5076478;28;45225;-70
2022/05/29 01:19:47;;;;;;;;;2.75;2.75;;;;;;;;5059590;27;45372;-70
2022/05/29 01:22:32;;;;;;;;;1.00;1.00;;;;;;;;5080609;27;45538;-70
2022/05/29 01:25:16;;;;;;;;;1.00;1.00;;;;;;;;5081709;27;45656;-70
2022/05/29 01:27:47;;;;;;;;;2.50;1.00;;;;;;;;5079404;27;45240;-70
2022/05/29 01:30:23;;;;;;;;;3.00;1.00;;;;;;;;5076724;27;45481;-70
2022/05/29 01:32:49;;;;;;;;;3.00;1.75;;;;;;;;5080197;27;45490;-70
2022/05/29 01:35:22;;;;;;;;;1.50;1.50;;;;;;;;5061600;27;47469;-70
2022/05/29 01:37:53;;;;;;;;;3.00;2.00;;;;;;;;5078685;27;45338;-70
2022/05/29 01:40:36;;;;;;;;;1.75;1.75;;;;;;;;5080701;27;45270;-70
2022/05/29 01:43:28;;;;;;;;;2.00;1.50;;;;;;;;5076006;27;45211;-70
2022/05/29 01:45:56;;;;;;;;;1.00;1.00;;;;;;;;5057068;27;45528;-70
2022/05/29 01:48:21;;;;;;;;;1.75;1.75;;;;;;;;5074706;27;45271;-70
2022/05/29 01:50:53;;;;;;;;;1.00;1.00;;;;;;;;5081509;27;45144;-70
2022/05/29 01:53:22;;;;;;;;;3.75;1.25;;;;;;;;5056278;28;46065;-70
2022/05/29 01:55:51;;;;;;;;;2.25;0.25;;;;;;;;5089063;27;46358;-70
2022/05/29 01:58:19;;;;;;;;;1.00;1.00;;;;;;;;5085728;27;45454;-70
2022/05/29 02:00:46;;;;;;;;;2.00;2.00;;;;;;;;5086531;27;45376;-70
2022/05/29 02:03:24;;;;;;;;;2.75;1.00;;;;;;;;5076777;27;45303;-70
2022/05/29 02:06:00;;;;;;;;;1.00;1.00;;;;;;;;5074184;27;45402;-70
2022/05/29 02:08:30;;;;;;;;;2.00;2.00;;;;;;;;5077203;27;45256;-70
2022/05/29 02:10:59;;;;;;;;;1.00;1.00;;;;;;;;5080456;27;45344;-70
2022/05/29 02:13:24;;;;;;;;;2.00;2.00;;;;;;;;5084477;27;45415;-70
2022/05/29 02:15:53;;;;;;;;;2.25;2.25;;;;;;;;5081255;27;45366;-70
2022/05/29 02:18:45;;;;;;;;;2.00;2.00;;;;;;;;5078141;27;48046;-70
2022/05/29 02:21:17;;;;;;;;;1.25;1.25;;;;;;;;5059575;28;45399;-70
2022/05/29 02:23:44;;;;;;;;;2.00;2.00;;;;;;;;5059186;27;46498;-70
2022/05/29 02:26:13;;;;;;;;;1.50;1.50;;;;;;;;5088496;27;45458;-71
2022/05/29 02:28:40;;;;;;;;;1.75;1.75;;;;;;;;5061637;27;45373;-71
2022/05/29 02:31:12;;;;;;;;;2.25;2.00;;;;;;;;5064467;28;45272;-70
2022/05/29 02:33:47;;;;;;;;;2.00;2.00;;;;;;;;5079884;27;45305;-70
2022/05/29 02:36:20;;;;;;;;;2.00;2.00;;;;;;;;5077150;27;46214;-71
2022/05/29 02:38:50;;;;;;;;;3.00;1.75;;;;;;;;5054332;28;46210;-70
2022/05/29 02:41:20;;;;;;;;;2.00;2.00;;;;;;;;5062389;28;45295;-70
2022/05/29 02:43:57;;;;;;;;;1.00;1.00;;;;;;;;5077395;27;45348;-70
2022/05/29 02:46:27;;;;;;;;;2.25;2.25;;;;;;;;5080469;27;46823;-70
2022/05/29 02:48:58;;;;;;;;;1.00;1.00;;;;;;;;5056156;28;46144;-70
2022/05/29 02:51:27;;;;;;;;;2.50;2.50;;;;;;;;5081061;27;45293;-70
2022/05/29 02:53:52;;;;;;;;;2.00;1.00;;;;;;;;5073448;27;45274;-70
2022/05/29 02:56:17;;;;;;;;;3.00;2.25;;;;;;;;5062671;27;46544;-70
2022/05/29 02:58:45;;;;;;;;;2.75;2.00;;;;;;;;5083730;27;45217;-70
2022/05/29 03:01:29;;;;;;;;;2.75;1.00;;;;;;;;5079197;27;45947;-70
2022/05/29 03:04:02;;;;;;;;;2.00;2.00;;;;;;;;5072023;27;45826;-70
2022/05/29 03:06:39;;;;;;;;;1.25;1.25;;;;;;;;5077776;27;46540;-70
2022/05/29 03:09:20;;;;;;;;;4.25;2.50;;;;;;;;5061749;27;45497;-70
2022/05/29 03:11:46;;;;;;;;;2.00;2.00;;;;;;;;5079503;27;45155;-70
2022/05/29 03:14:19;;;;;;;;;4.50;1.75;;;;;;;;5054534;28;45507;-70
2022/05/29 03:16:56;;;;;;;;;2.00;2.00;;;;;;;;5061661;28;47642;-70
2022/05/29 03:19:31;;;;;;;;;2.00;1.00;;;;;;;;5071932;27;46181;-70
2022/05/29 03:21:58;;;;;;;;;1.25;1.25;;;;;;;;5080293;27;45225;-70
2022/05/29 03:24:28;;;;;;;;;4.25;2.00;;;;;;;;5074260;27;45670;-70
2022/05/29 03:27:02;;;;;;;;;4.00;2.00;;;;;;;;5080346;27;46653;-70
2022/05/29 03:29:38;;;;;;;;;2.00;2.00;;;;;;;;5078124;27;45362;-70
2022/05/29 03:32:05;;;;;;;;;4.00;2.25;;;;;;;;5080080;27;45232;-70
2022/05/29 03:34:30;;;;;;;;;1.25;1.25;;;;;;;;5074295;27;48073;-70
2022/05/29 03:36:55;;;;;;;;;3.50;2.50;;;;;;;;5086956;27;45413;-70
2022/05/29 03:39:20;;;;;;;;;2.25;2.25;;;;;;;;5081685;27;45288;-70
2022/05/29 03:41:50;;;;;;;;;3.00;3.00;;;;;;;;5079709;27;45624;-70
2022/05/29 03:44:17;;;;;;;;;3.00;1.00;;;;;;;;5086174;27;45683;-70
2022/05/29 03:46:45;;;;;;;;;3.00;2.00;;;;;;;;5087551;27;46236;-70
2022/05/29 03:49:12;;;;;;;;;2.00;2.00;;;;;;;;5073282;27;45223;-70
2022/05/29 03:51:37;;;;;;;;;5.25;2.00;;;;;;;;5084373;27;45293;-70
2022/05/29 03:54:03;;;;;;;;;4.00;2.00;;;;;;;;5073133;28;45385;-70
2022/05/29 03:56:28;;;;;;;;;2.00;2.00;;;;;;;;5079371;27;46432;-70
2022/05/29 03:58:53;;;;;;;;;1.50;1.50;;;;;;;;5078162;28;45304;-70
2022/05/29 04:01:18;;;;;;;;;1.00;1.00;;;;;;;;5080359;27;45374;-70
2022/05/29 04:03:44;;;;;;;;;2.50;2.00;;;;;;;;5076990;27;45380;-70
2022/05/29 04:06:09;;;;;;;;;1.25;1.00;;;;;;;;5078789;27;45439;-70
2022/05/29 04:14:03;;;;;;;;;3.00;2.00;;;;;;;;5076925;27;45411;-72
2022/05/29 04:16:29;;;;;;;;;2.00;2.00;;;;;;;;5080153;27;45434;-70
2022/05/29 04:18:54;;;;;;;;;1.00;1.00;;;;;;;;5087407;27;45209;-71
2022/05/29 04:21:19;;;;;;;;;2.75;2.75;;;;;;;;5095567;27;45323;-71
2022/05/29 04:23:44;;;;;;;;;2.50;2.00;;;;;;;;5080190;27;45270;-71
2022/05/29 04:26:12;;;;;;;;;2.00;2.00;;;;;;;;5078939;28;46092;-72
2022/05/29 04:28:37;;;;;;;;;1.75;1.75;;;;;;;;5061993;28;45405;-71
2022/05/29 04:31:03;;;;;;;;;3.75;2.00;;;;;;;;5060841;28;45335;-71
2022/05/29 04:33:28;;;;;;;;;2.50;2.50;;;;;;;;5055079;27;45811;-71
2022/05/29 04:35:53;;;;;;;;;3.00;2.00;;;;;;;;5082735;27;46198;-71
2022/05/29 04:38:20;;;;;;;;;3.25;3.25;;;;;;;;5054065;28;45338;-72
2022/05/29 04:40:45;;;;;;;;;2.00;2.00;;;;;;;;5076787;28;45478;-70
2022/05/29 04:43:12;;;;;;;;;2.00;2.00;;;;;;;;5072487;28;45428;-71
2022/05/29 04:45:38;;;;;;;;;2.75;2.75;;;;;;;;5078189;27;45421;-70
2022/05/29 04:48:03;;;;;;;;;3.25;2.00;;;;;;;;5073500;28;45502;-71
2022/05/29 04:50:28;;;;;;;;;2.00;2.00;;;;;;;;5076918;28;45266;-70
2022/05/29 04:52:54;;;;;;;;;4.00;2.00;;;;;;;;5076252;27;45202;-71
2022/05/29 04:55:19;;;;;;;;;5.00;3.25;;;;;;;;5085883;27;46192;-71
2022/05/29 04:57:44;;;;;;;;;2.00;1.00;;;;;;;;5089596;27;45374;-71
2022/05/29 05:00:10;;;;;;;;;4.25;1.75;;;;;;;;5096135;27;45280;-71
2022/05/29 05:02:35;;;;;;;;;0.75;0.75;;;;;;;;5090153;27;46143;-71
2022/05/29 05:05:01;;;;;;;;;2.00;2.00;;;;;;;;5079617;27;46287;-71
2022/05/29 05:07:26;;;;;;;;;5.25;5.25;;;;;;;;5080285;27;45506;-71
2022/05/29 05:09:51;;;;;;;;;4.00;2.25;;;;;;;;5086572;27;45462;-72
2022/05/29 05:12:16;;;;;;;;;2.25;2.25;;;;;;;;5091585;27;45558;-71
2022/05/29 05:14:42;;;;;;;;;4.00;2.75;;;;;;;;5079160;27;46136;-71
2022/05/29 05:17:07;;;;;;;;;2.00;2.00;;;;;;;;5087939;27;45282;-72
2022/05/29 05:19:33;;;;;;;;;2.00;2.00;;;;;;;;5086575;27;45529;-71
2022/05/29 05:22:02;;;;;;;;;3.00;2.00;;;;;;;;5066536;28;45815;-71
2022/05/29 05:24:28;;;;;;;;;1.75;1.75;;;;;;;;5055779;28;48669;-71
2022/05/29 05:26:54;;;;;;;;;3.00;3.00;;;;;;;;5063359;28;45248;-71
2022/05/29 05:29:19;;;;;;;;;2.75;2.75;;;;;;;;5076718;27;45473;-70
2022/05/29 05:31:44;;;;;;;;;2.00;2.00;;;;;;;;5078214;27;45275;-70
2022/05/29 05:34:09;;;;;;;;;2.75;1.75;;;;;;;;5080484;27;45287;-70
2022/05/29 05:36:34;;;;;;;;;3.00;3.00;;;;;;;;5065111;28;45503;-70
2022/05/29 05:39:00;;;;;;;;;2.00;2.00;;;;;;;;5053014;28;45507;-70
2022/05/29 05:41:25;;;;;;;;;1.25;1.00;;;;;;;;5081905;27;45292;-70
2022/05/29 05:43:50;;;;;;;;;5.00;2.00;;;;;;;;5077250;27;45527;-70
2022/05/29 05:46:16;;;;;;;;;1.00;1.00;;;;;;;;5064336;27;46280;-70
2022/05/29 05:48:43;;;;;;;;;4.00;2.00;;;;;;;;5078334;28;45336;-71
2022/05/29 05:51:08;;;;;;;;;3.00;1.50;;;;;;;;5087727;27;45425;-70
2022/05/29 05:53:35;;;;;;;;;2.00;1.75;;;;;;;;5078534;27;46371;-69
2022/05/29 05:56:07;;;;;;;;;2.00;2.00;;;;;;;;5081107;27;45275;-70
2022/05/29 05:58:32;;;;;;;;;1.50;1.50;;;;;;;;5057535;28;45269;-70
2022/05/29 06:01:02;;;;;;;;;3.75;2.25;;;;;;;;5080867;27;45404;-70
2022/05/29 06:03:27;;;;;;;;;2.25;2.25;;;;;;;;5077926;27;47330;-70
2022/05/29 06:05:53;;;;;;;;;2.25;2.00;;;;;;;;5081306;27;45374;-70
2022/05/29 06:08:18;;;;;;;;;1.50;1.00;;;;;;;;5085427;27;45325;-70
2022/05/29 06:10:43;;;;;;;;;1.00;1.00;;;;;;;;5082182;27;45324;-70
2022/05/29 06:13:08;;;;;;;;;2.25;1.00;;;;;;;;5081576;27;45334;-70
2022/05/29 06:15:33;;;;;;;;;3.00;2.00;;;;;;;;5093605;27;45426;-69
2022/05/29 06:17:59;;;;;;;;;2.25;2.25;;;;;;;;5093727;27;45408;-71
2022/05/29 06:20:27;;;;;;;;;0.25;0.25;;;;;;;;5098140;27;45525;-70
2022/05/29 06:22:52;;;;;;;;;1.00;1.00;;;;;;;;5093693;27;45619;-70
2022/05/29 06:25:17;;;;;;;;;4.00;3.00;;;;;;;;5096537;27;45287;-70
2022/05/29 06:27:43;;;;;;;;;2.25;1.00;;;;;;;;5094961;27;45528;-70
2022/05/29 06:30:10;;;;;;;;;2.50;1.00;;;;;;;;5094723;27;45605;-72
2022/05/29 06:32:36;;;;;;;;;2.00;2.00;;;;;;;;5081594;27;46469;-72
2022/05/29 06:35:02;;;;;;;;;1.25;1.25;;;;;;;;5076466;27;45325;-72
2022/05/29 06:37:29;;;;;;;;;2.25;1.00;;;;;;;;5077426;28;45731;-72
2022/05/29 06:39:54;;;;;;;;;3.67;2.00;;;;;;;;5074544;27;45343;-72
2022/05/29 06:42:20;;;;;;;;;1.00;1.00;;;;;;;;5080254;27;45617;-72
2022/05/29 06:44:45;;;;;;;;;5.00;4.00;;;;;;;;5074820;27;45433;-73
2022/05/29 06:47:11;;;;;;;;;3.33;2.00;;;;;;;;5080528;28;45298;-72
2022/05/29 06:49:36;;;;;;;;;2.00;2.00;;;;;;;;5073144;28;45265;-72
2022/05/29 06:52:07;;;;;;;;;0.33;0.33;;;;;;;;5061799;28;47235;-71
2022/05/29 06:54:33;;;;;;;;;3.67;2.00;;;;;;;;5073810;27;45221;-70
2022/05/29 06:56:58;;;;;;;;;1.00;1.00;;;;;;;;5081600;27;45323;-70
2022/05/29 06:59:23;;;;;;;;;0.67;0.67;;;;;;;;5057554;28;47268;-70
2022/05/29 07:06:59;;;;;;;;;1.33;1.00;;;;;;;;5076991;28;45481;-70
2022/05/29 07:07:20;;;;;;;;;1.67;1.00;;;;;;;;5078952;27;45285;-70
2022/05/29 07:09:45;;;;;;;;;2.00;1.00;;;;;;;;5078584;27;45347;-70
2022/05/29 07:12:13;;;;;;;;;1.33;0.67;;;;;;;;5080064;27;45563;-70
2022/05/29 07:14:40;;;;;;;;;1.00;1.00;;;;;;;;5053547;27;45956;-69
2022/05/29 07:17:06;;;;;;;;;2.00;0.00;;;;;;;;5091140;27;45224;-70
2022/05/29 07:19:31;;;;;;;;;2.00;1.00;;;;;;;;5057805;28;47281;-70
2022/05/29 07:21:57;;;;;;;;;1.00;1.00;;;;;;;;5069023;27;48257;-70
2022/05/29 07:24:24;;;;;;;;;2.00;1.00;;;;;;;;5083825;27;45554;-71
2022/05/29 07:26:49;;;;;;;;;0.00;0.00;;;;;;;;5067631;27;45431;-70
2022/05/29 07:29:17;;;;;;;;;1.00;1.00;;;;;;;;5073268;27;45450;-70
2022/05/29 07:31:43;;;;;;;;;0.00;0.00;;;;;;;;5082030;27;46044;-70
2022/05/29 07:34:08;;;;;;;;;1.00;1.00;;;;;;;;5073940;27;45513;-70
2022/05/29 07:36:34;;;;;;;;;1.33;1.33;;;;;;;;5079889;27;45457;-71
2022/05/29 07:39:00;;;;;;;;;1.00;1.00;;;;;;;;5074239;27;45338;-72
2022/05/29 07:44:09;;;;;;;;;1.00;1.00;;;;;;;;5076446;27;45379;-70
2022/05/29 07:46:34;;;;;;;;;1.33;1.00;;;;;;;;5079340;28;45289;-71
2022/05/29 07:48:59;;;;;;;;;1.33;1.33;;;;;;;;5075460;27;45337;-69
2022/05/29 07:51:25;;;;;;;;;1.33;1.33;;;;;;;;5079199;27;46018;-70
2022/05/29 07:53:50;;;;;;;;;4.67;1.00;;;;;;;;5065956;27;46057;-70
2022/05/29 07:56:19;;;;;;;;;2.00;2.00;;;;;;;;5069822;27;45475;-70
2022/05/29 07:58:45;;;;;;;;;1.00;1.00;;;;;;;;5063004;27;46914;-71
2022/05/29 08:01:11;;;;;;;;;2.00;1.00;;;;;;;;5095444;27;46079;-70
2022/05/29 08:03:36;;;;;;;;;1.00;1.00;;;;;;;;5086373;27;45468;-70
2022/05/29 08:06:02;;;;;;;;;1.00;1.00;;;;;;;;5078259;27;45309;-70
2022/05/29 08:08:28;;;;;;;;;4.00;1.00;;;;;;;;5091247;27;45249;-69
2022/05/29 08:10:54;;;;;;;;;1.00;1.00;;;;;;;;5097803;27;46220;-69
2022/05/29 08:13:19;;;;;;;;;1.67;1.00;;;;;;;;5091378;27;45375;-69
2022/05/29 08:15:44;;;;;;;;;1.00;1.00;;;;;;;;5096180;27;45231;-69
2022/05/29 08:18:09;;;;;;;;;1.33;1.00;;;;;;;;5089942;27;45743;-70
2022/05/29 08:20:36;;;;;;;;;1.00;1.00;;;;;;;;5093381;27;46657;-69
2022/05/29 08:23:02;;;;;;;;;2.00;1.00;;;;;;;;5090019;27;45410;-69
2022/05/29 08:30:55;;;;;;;;;1.67;1.00;;;;;;;;5092371;27;45811;-70
2022/05/29 08:33:21;;;;;;;;;1.00;1.00;;;;;;;;5089540;27;46533;-69
2022/05/29 08:36:00;;;;;;;;;1.00;1.00;;;;;;;;5093126;27;45426;-70
2022/05/29 08:38:25;;;;;;;;;0.33;0.00;;;;;;;;5072374;27;45564;-70
2022/05/29 08:40:52;;;;;;;;;1.00;1.00;;;;;;;;5060353;28;48077;-70
2022/05/29 08:43:24;;;;;;;;;1.00;1.00;;;;;;;;5059244;27;45373;-71
2022/05/29 08:45:50;;;;;;;;;2.67;1.67;;;;;;;;5079385;28;45227;-70
2022/05/29 08:48:19;;;;;;;;;0.00;0.00;;;;;;;;5074904;28;45357;-70
2022/05/29 08:51:03;;;;;;;;;0.67;0.67;;;;;;;;5076818;28;47524;-70
2022/05/29 08:53:47;;;;;;;;;1.33;0.67;;;;;;;;5072525;27;45414;-70
2022/05/29 08:56:18;;;;;;;;;1.00;1.00;;;;;;;;5074917;28;45351;-70
2022/05/29 08:59:07;;;;;;;;;3.00;1.67;;;;;;;;5073480;27;45381;-70
2022/05/29 09:01:39;;;;;;;;;1.00;1.00;;;;;;;;5086469;27;45636;-70
2022/05/29 09:04:09;;;;;;;;;1.67;0.33;;;;;;;;5074220;27;45225;-70
2022/05/29 09:06:41;;;;;;;;;3.67;0.00;;;;;;;;5078344;28;45513;-70
2022/05/29 09:09:19;;;;;;;;;0.33;0.33;;;;;;;;5083168;27;45445;-68
2022/05/29 09:11:51;;;;;;;;;1.33;0.33;;;;;;;;5087972;27;45454;-70
2022/05/29 09:14:24;;;;;;;;;1.00;1.00;;;;;;;;5073684;27;45389;-69
2022/05/29 09:17:02;;;;;;;;;1.00;1.00;;;;;;;;5073770;27;45388;-69
2022/05/29 09:19:33;;;;;;;;;4.33;4.33;;;;;;;;5077937;27;45328;-68
2022/05/29 09:22:02;;;;;;;;;3.00;2.00;;;;;;;;5078452;28;46139;-69
2022/05/29 09:24:46;;;;;;;;;3.00;3.00;;;;;;;;5073935;28;45475;-69
2022/05/29 09:27:11;;;;;;;;;5.33;5.33;;;;;;;;5084505;27;45366;-69
2022/05/29 09:29:37;;;;;;;;;4.00;2.00;;;;;;;;5071519;28;45331;-69
2022/05/29 09:32:04;;;;;;;;;3.00;3.00;;;;;;;;5077940;27;46299;-69
2022/05/29 09:34:29;;;;;;;;;4.67;4.67;;;;;;;;5070931;28;45418;-69
2022/05/29 09:36:57;;;;;;;;;4.00;4.00;;;;;;;;5078156;28;45447;-68
2022/05/29 09:39:26;;;;;;;;;3.00;2.00;;;;;;;;5080758;27;45515;-67
2022/05/29 09:42:04;;;;;;;;;1.33;1.00;;;;;;;;5071440;27;45460;-67
2022/05/29 09:44:29;;;;;;;;;3.33;2.00;;;;;;;;5071464;27;45403;-68
2022/05/29 09:49:40;;;;;;;;;11.33;10.67;;;;;;;;5084833;27;45570;-68
2022/05/29 09:49:49;;;;;;;;;2.00;2.00;;;;;;;;5091429;27;45356;-67
2022/05/29 09:52:26;;;;;;;;;5.00;2.00;;;;;;;;5078659;27;46404;-68
2022/05/29 09:54:54;;;;;;;;;2.00;1.00;;;;;;;;5090553;27;45296;-68
2022/05/29 09:57:21;;;;;;;;;1.67;1.67;;;;;;;;5064244;28;45226;-68
2022/05/29 09:59:49;;;;;;;;;2.67;2.00;;;;;;;;5078419;27;45582;-67
2022/05/29 10:02:35;;;;;;;;;1.00;1.00;;;;;;;;5062655;27;46128;-67
2022/05/29 10:05:00;;;;;;;;;2.00;2.00;;;;;;;;5060737;28;45694;-68
2022/05/29 10:07:31;;;;;;;;;1.00;1.00;;;;;;;;5061388;27;45445;-67
2022/05/29 10:09:59;;;;;;;;;2.00;2.00;;;;;;;;5078894;27;45570;-68
2022/05/29 10:12:33;;;;;;;;;0.67;0.67;;;;;;;;5077537;27;48389;-67
2022/05/29 10:14:58;;;;;;;;;0.67;0.67;;;;;;;;5086893;27;45346;-68
2022/05/29 10:17:29;;;;;;;;;0.67;0.67;;;;;;;;5079905;27;45362;-68
2022/05/29 10:19:54;;;;;;;;;5.00;5.00;;;;;;;;5050939;28;46224;-67
2022/05/29 10:22:26;;;;;;;;;2.67;2.67;;;;;;;;5079833;27;45275;-67
2022/05/29 10:24:51;;;;;;;;;1.00;1.00;;;;;;;;5060242;27;45921;-68
2022/05/29 10:27:35;;;;;;;;;2.67;2.67;;;;;;;;5082372;27;45267;-68
2022/05/29 10:30:03;;;;;;;;;0.00;0.00;;;;;;;;5077435;28;45661;-68
2022/05/29 10:32:30;;;;;;;;;4.67;1.00;;;;;;;;5079478;27;45363;-68
2022/05/29 10:35:14;;;;;;;;;1.00;1.00;;;;;;;;5078229;27;45391;-68
2022/05/29 10:37:41;;;;;;;;;0.67;0.67;;;;;;;;5078359;27;45275;-68
2022/05/29 10:40:18;;;;;;;;;3.33;1.67;;;;;;;;5061851;28;46549;-68
2022/05/29 10:42:45;;;;;;;;;2.67;1.33;;;;;;;;5078043;27;46230;-68
2022/05/29 10:45:19;;;;;;;;;2.00;2.00;;;;;;;;5080317;27;45517;-68
2022/05/29 10:47:56;;;;;;;;;3.00;3.00;;;;;;;;5073021;27;45366;-68
2022/05/29 10:50:27;;;;;;;;;4.00;4.00;;;;;;;;5087461;27;45719;-69
2022/05/29 10:52:58;;;;;;;;;6.00;5.67;;;;;;;;5078724;27;46383;-68
2022/05/29 10:55:27;;;;;;;;;15.33;14.00;;;;;;;;5079448;28;45595;-68
2022/05/29 10:57:58;;;;;;;;;5.33;5.33;;;;;;;;5059718;28;45482;-68
2022/05/29 11:00:34;;;;;;;;;3.00;2.00;;;;;;;;5079062;27;45719;-69
2022/05/29 11:06:01;;;;;;;;;2.00;2.00;;;;;;;;5078287;28;45305;-67
2022/05/29 11:08:48;;;;;;;;;0.00;0.00;;;;;;;;5059662;27;45406;-67
2022/05/29 11:11:19;;;;;;;;;1.00;1.00;;;;;;;;5079907;27;45402;-67
2022/05/29 11:13:50;;;;;;;;;9.00;6.33;;;;;;;;5077214;27;46391;-67
2022/05/29 11:16:21;;;;;;;;;4.33;3.33;;;;;;;;5090070;27;45767;-67
2022/05/29 11:19:09;;;;;;;;;9.00;9.00;;;;;;;;5091757;27;45508;-68
2022/05/29 11:21:43;;;;;;;;;7.67;4.67;;;;;;;;5068550;28;47145;-68
2022/05/29 11:24:23;;;;;;;;;21.33;15.67;;;;;;;;5071871;27;45680;-67
2022/05/29 11:27:02;;;;;;;;;2.00;2.00;;;;;;;;5064907;27;45378;-67
2022/05/29 11:29:27;;;;;;;;;2.67;1.67;;;;;;;;5059306;28;45451;-67
2022/05/29 11:31:52;;;;;;;;;0.33;0.33;;;;;;;;5061379;27;45895;-67
2022/05/29 11:34:27;;;;;;;;;2.00;2.00;;;;;;;;5074210;27;45385;-67
2022/05/29 11:36:59;;;;;;;;;1.67;1.67;;;;;;;;5080219;27;45234;-67
2022/05/29 11:39:30;;;;;;;;;3.33;2.00;;;;;;;;5065715;27;45369;-68
2022/05/29 11:42:10;;;;;;;;;2.00;2.00;;;;;;;;5072672;27;45526;-67
2022/05/29 11:44:40;;;;;;;;;4.33;3.33;;;;;;;;5075890;28;45630;-68
2022/05/29 11:51:07;;;;;;;;;2.33;2.33;;;;;;;;5089165;27;45323;-68
2022/05/29 11:53:13;;;;;;;;;6.00;5.00;;;;;;;;5070470;27;45209;-67
2022/05/29 11:55:40;;;;;;;;;3.33;2.67;;;;;;;;5078676;28;45392;-67
2022/05/29 11:58:15;;;;;;;;;10.00;9.00;;;;;;;;5079213;27;45409;-67
2022/05/29 12:00:45;;;;;;;;;6.33;6.33;;;;;;;;5059482;28;45449;-68
2022/05/29 12:03:25;;;;;;;;;22.67;21.33;;;;;;;;5075585;28;45550;-67
2022/05/29 12:06:05;;;;;;;;;7.67;6.67;;;;;;;;5082646;27;45276;-68
2022/05/29 12:08:38;;;;;;;;;5.00;5.00;;;;;;;;5076492;27;45537;-67
2022/05/29 12:11:04;;;;;;;;;7.67;7.00;;;;;;;;5060672;28;45306;-68
2022/05/29 12:13:33;;;;;;;;;8.33;8.33;;;;;;;;5075412;28;45445;-67
2022/05/29 12:16:02;;;;;;;;;13.67;10.67;;;;;;;;5077048;27;45475;-68
2022/05/29 12:18:34;;;;;;;;;6.33;6.00;;;;;;;;5072303;27;45284;-67
2022/05/29 12:21:01;;;;;;;;;3.67;3.00;;;;;;;;5086009;27;45316;-67
2022/05/29 12:23:26;;;;;;;;;2.00;1.00;;;;;;;;5079316;27;46132;-67
2022/05/29 12:25:57;;;;;;;;;1.33;1.33;;;;;;;;5078836;27;45445;-68
2022/05/29 12:28:25;;;;;;;;;2.00;1.67;;;;;;;;5074551;27;45415;-67
2022/05/29 12:30:52;;;;;;;;;6.33;5.67;;;;;;;;5079229;27;45450;-67
2022/05/29 12:33:18;;;;;;;;;1.00;1.00;;;;;;;;5072457;28;45451;-68
2022/05/29 12:36:05;;;;;;;;;2.00;2.00;;;;;;;;5078693;27;45265;-67
2022/05/29 12:38:49;;;;;;;;;4.33;3.00;;;;;;;;5061083;27;45436;-67
2022/05/29 12:41:33;;;;;;;;;2.00;2.00;;;;;;;;5078917;27;45265;-67
2022/05/29 12:44:04;;;;;;;;;1.00;1.00;;;;;;;;5071628;27;45363;-67
2022/05/29 12:46:37;;;;;;;;;1.00;1.00;;;;;;;;5078492;27;45479;-67
2022/05/29 12:49:15;;;;;;;;;2.00;2.00;;;;;;;;5071878;28;45327;-67
2022/05/29 12:51:51;;;;;;;;;2.00;2.00;;;;;;;;5078172;27;45439;-67
2022/05/29 12:54:35;;;;;;;;;2.00;2.00;;;;;;;;5051561;28;45986;-67
2022/05/29 12:57:12;;;;;;;;;2.00;1.00;;;;;;;;5058000;28;47456;-67
2022/05/29 12:59:46;;;;;;;;;3.00;1.00;;;;;;;;5075167;27;45488;-67
2022/05/29 13:02:23;;;;;;;;;4.33;3.33;;;;;;;;5089963;27;45441;-68
2022/05/29 13:05:07;;;;;;;;;2.67;1.33;;;;;;;;5076181;27;45374;-67
2022/05/29 13:07:55;;;;;;;;;0.67;0.67;;;;;;;;5093769;27;46459;-67
2022/05/29 13:10:27;;;;;;;;;2.00;1.00;;;;;;;;5082202;27;45474;-68
2022/05/29 13:13:08;;;;;;;;;1.00;1.00;;;;;;;;5085649;27;45468;-68
2022/05/29 13:15:34;;;;;;;;;4.00;2.00;;;;;;;;5064185;28;46990;-67
2022/05/29 13:18:09;;;;;;;;;3.00;3.00;;;;;;;;5080004;27;46368;-67
2022/05/29 13:20:53;;;;;;;;;3.67;3.00;;;;;;;;5094864;27;45626;-68
2022/05/29 13:23:30;;;;;;;;;1.00;1.00;;;;;;;;5092991;27;45537;-68
2022/05/29 13:25:57;;;;;;;;;5.00;3.00;;;;;;;;5088731;27;45396;-67
2022/05/29 13:28:31;;;;;;;;;1.67;1.67;;;;;;;;5081378;27;46208;-69
2022/05/29 13:31:04;;;;;;;;;1.00;1.00;;;;;;;;5089883;27;45613;-69
2022/05/29 13:33:30;;;;;;;;;2.00;1.00;;;;;;;;5089825;27;45332;-66
2022/05/29 13:35:58;;;;;;;;;3.67;2.67;;;;;;;;5077377;27;45840;-67
2022/05/29 13:38:42;;;;;;;;;2.67;2.67;;;;;;;;5071301;27;47089;-68
2022/05/29 13:41:08;;;;;;;;;3.00;2.67;;;;;;;;5096483;27;45473;-67
2022/05/29 13:43:34;;;;;;;;;4.00;4.00;;;;;;;;5087638;27;45319;-68
2022/05/29 13:46:07;;;;;;;;;2.00;2.00;;;;;;;;5097403;27;45536;-69
2022/05/29 13:48:53;;;;;;;;;2.33;2.33;;;;;;;;5088903;27;46524;-68
2022/05/29 13:51:25;;;;;;;;;2.00;2.00;;;;;;;;5093905;27;45467;-68
2022/05/29 13:54:01;;;;;;;;;2.67;1.00;;;;;;;;5088402;27;46489;-68
2022/05/29 13:56:45;;;;;;;;;1.00;1.00;;;;;;;;5095874;27;45450;-68
2022/05/29 14:04:49;;;;;;;;;1.67;1.67;;;;;;;;5091754;27;45346;-67
2022/05/29 14:07:17;;;;;;;;;5.00;4.00;;;;;;;;5080930;27;45225;-67
2022/05/29 14:10:02;;;;;;;;;2.33;1.67;;;;;;;;5080100;27;45378;-67
2022/05/29 14:12:31;;;;;;;;;2.33;2.33;;;;;;;;5074682;27;45848;-67
2022/05/29 14:14:56;;;;;;;;;2.33;1.00;;;;;;;;5075656;27;45339;-66
2022/05/29 14:17:31;;;;;;;;;4.00;2.33;;;;;;;;5087907;27;45190;-67
2022/05/29 14:19:59;;;;;;;;;1.33;1.33;;;;;;;;5076980;27;46007;-67
2022/05/29 14:22:46;;;;;;;;;3.33;2.00;;;;;;;;5080376;27;45183;-67
2022/05/29 14:25:25;;;;;;;;;2.00;2.00;;;;;;;;5057431;28;45413;-68
2022/05/29 14:28:03;;;;;;;;;3.00;3.00;;;;;;;;5080229;27;45349;-67
2022/05/29 14:30:47;;;;;;;;;2.33;2.33;;;;;;;;5076887;28;45253;-67
2022/05/29 14:33:21;;;;;;;;;2.00;2.00;;;;;;;;5075438;27;45470;-66
2022/05/29 14:35:52;;;;;;;;;2.00;1.67;;;;;;;;5080648;27;45312;-66
2022/05/29 14:38:20;;;;;;;;;3.67;3.00;;;;;;;;5078294;27;45327;-66
2022/05/29 14:40:51;;;;;;;;;1.67;1.67;;;;;;;;5079284;27;45413;-68
2022/05/29 14:43:18;;;;;;;;;1.67;1.33;;;;;;;;5078401;27;45520;-67
2022/05/29 14:45:58;;;;;;;;;2.00;0.67;;;;;;;;5085167;27;45441;-67
2022/05/29 14:48:55;;;;;;;;;1.00;1.00;;;;;;;;5083170;27;45230;-67
2022/05/29 14:51:25;;;;;;;;;1.00;1.00;;;;;;;;5076912;27;45275;-67
2022/05/29 14:53:56;;;;;;;;;2.00;2.00;;;;;;;;5079673;27;45583;-67
2022/05/29 14:56:34;;;;;;;;;2.00;2.00;;;;;;;;5082811;27;45267;-66
2022/05/29 14:59:15;;;;;;;;;1.00;1.00;;;;;;;;5078562;27;45348;-67
2022/05/29 15:01:41;;;;;;;;;1.00;1.00;;;;;;;;5079580;27;45243;-67
2022/05/29 15:04:07;;;;;;;;;4.00;2.00;;;;;;;;5076262;28;45256;-67
2022/05/29 15:12:04;;;;;;;;;1.00;1.00;;;;;;;;5079283;27;45382;-66
2022/05/29 15:14:29;;;;;;;;;1.00;1.00;;;;;;;;5077734;27;45457;-67
2022/05/29 15:16:55;;;;;;;;;2.67;1.67;;;;;;;;5080446;27;45542;-67
2022/05/29 15:25:21;;;;;;;;;1.00;1.00;;;;;;;;5076399;27;45421;-67
2022/05/29 15:27:47;;;;;;;;;2.00;1.00;;;;;;;;5085402;27;45417;-67
2022/05/29 15:30:17;;;;;;;;;1.00;1.00;;;;;;;;5061343;28;45920;-66
2022/05/29 15:32:42;;;;;;;;;1.67;1.67;;;;;;;;5077269;28;45606;-67
2022/05/29 15:35:20;;;;;;;;;1.00;1.00;;;;;;;;5079332;27;45294;-67
2022/05/29 15:37:51;;;;;;;;;1.33;1.00;;;;;;;;5060019;28;45561;-67
2022/05/29 15:40:27;;;;;;;;;3.00;2.00;;;;;;;;5057985;28;45995;-67